createdAt,value
2019-01-10T00:00:05.638Z,2.4
2019-01-10T00:05:03.229Z,2.3
2019-01-10T00:10:02.773Z,2.4
2019-01-10T00:15:02.949Z,2.4
2019-01-10T00:20:05.692Z,2.3
2019-01-10T00:25:03.165Z,2.3
2019-01-10T00:30:03.286Z,2.3
2019-01-10T00:35:02.511Z,2.3
2019-01-10T00:40:03.156Z,2.3
2019-01-10T00:45:02.305Z,2.3
2019-01-10T00:50:02.445Z,2.3
2019-01-10T00:55:02.655Z,2.3
2019-01-10T01:00:02.839Z,2.3
2019-01-10T01:05:02.880Z,2.3
2019-01-10T01:10:04.970Z,2.3
2019-01-10T01:15:02.593Z,2.3
2019-01-10T01:20:02.827Z,2.3
2019-01-10T01:25:02.766Z,2.4
2019-01-10T01:30:02.867Z,2.4
2019-01-10T01:35:02.989Z,2.3
2019-01-10T01:40:05.165Z,2.3
2019-01-10T01:45:02.605Z,2.3
2019-01-10T01:50:02.649Z,2.3
2019-01-10T01:55:02.721Z,2.3
2019-01-10T02:00:02.852Z,2.3
2019-01-10T02:05:03.043Z,2.3
2019-01-10T02:10:02.595Z,2.3
2019-01-10T02:15:02.611Z,2.2
2019-01-10T02:20:02.799Z,2.2
2019-01-10T02:25:02.762Z,2.1
2019-01-10T02:30:02.897Z,2.1
2019-01-10T02:35:02.919Z,2.1
2019-01-10T02:40:02.464Z,2
2019-01-10T02:45:02.591Z,2
2019-01-10T02:50:02.385Z,2
2019-01-10T02:55:02.374Z,1.9
2019-01-10T03:00:02.409Z,1.9
2019-01-10T03:05:02.479Z,2
2019-01-10T03:10:03.303Z,1.9
2019-01-10T03:15:02.504Z,2
2019-01-10T03:20:02.607Z,2
2019-01-10T03:25:02.729Z,2
2019-01-10T03:30:02.882Z,2
2019-01-10T03:35:03.078Z,2
2019-01-10T03:40:05.149Z,2
2019-01-10T03:45:02.641Z,2
2019-01-10T03:50:02.773Z,2
2019-01-10T03:55:05.285Z,2
2019-01-10T04:00:02.329Z,1.9
2019-01-10T04:05:02.410Z,1.9
2019-01-10T04:10:03.022Z,1.9
2019-01-10T04:15:03.046Z,1.9
2019-01-10T04:20:03.223Z,1.9
2019-01-10T04:25:02.343Z,1.9
2019-01-10T04:30:02.504Z,1.9
2019-01-10T04:35:02.550Z,1.9
2019-01-10T04:40:03.110Z,1.8
2019-01-10T04:45:03.046Z,1.8
2019-01-10T04:50:03.175Z,1.7
2019-01-10T04:55:02.305Z,1.7
2019-01-10T05:00:02.330Z,1.7
2019-01-10T05:05:02.503Z,1.6
2019-01-10T05:10:03.363Z,1.6
2019-01-10T05:15:02.472Z,1.5
2019-01-10T05:20:02.597Z,1.5
2019-01-10T05:25:05.221Z,1.5
2019-01-10T05:30:03.290Z,1.4
2019-01-10T05:35:02.359Z,1.4
2019-01-10T05:40:03.043Z,1.4
2019-01-10T05:45:02.518Z,1.4
2019-01-10T05:50:02.548Z,1.4
2019-01-10T05:55:03.294Z,1.3
2019-01-10T06:00:03.317Z,1.4
2019-01-10T06:05:05.003Z,1.4
2019-01-10T06:10:05.175Z,1.3
2019-01-10T06:15:02.650Z,1.3
2019-01-10T06:20:02.815Z,1.4
2019-01-10T06:25:07.949Z,1.3
2019-01-10T06:30:03.050Z,1.3
2019-01-10T06:35:03.173Z,1.3
2019-01-10T06:40:05.282Z,1.2
2019-01-10T06:45:03.055Z,1.1
2019-01-10T06:50:03.146Z,1.2
2019-01-10T06:55:03.171Z,1.2
2019-01-10T07:00:03.262Z,1.2
2019-01-10T07:05:02.336Z,1.1
2019-01-10T07:10:10.376Z,1.1
2019-01-10T07:15:02.877Z,1.1
2019-01-10T07:20:05.610Z,1.1
2019-01-10T07:25:03.118Z,1.1
2019-01-10T07:30:03.090Z,1.1
2019-01-10T07:35:03.170Z,1.1
2019-01-10T07:40:05.283Z,1
2019-01-10T07:45:03.212Z,0.9
2019-01-10T07:50:02.387Z,0.9
2019-01-10T07:55:02.456Z,0.8
2019-01-10T08:00:02.539Z,0.7
2019-01-10T08:05:02.611Z,0.7
2019-01-10T08:10:05.684Z,0.6
2019-01-10T08:15:11.544Z,0.6
2019-01-10T08:20:03.256Z,0.6
2019-01-10T08:25:02.336Z,0.6
2019-01-10T08:30:02.358Z,0.6
2019-01-10T08:35:02.523Z,0.6
2019-01-10T08:40:03.087Z,0.6
2019-01-10T08:45:03.325Z,0.6
2019-01-10T08:50:02.413Z,0.7
2019-01-10T08:55:02.456Z,0.8
2019-01-10T09:00:02.561Z,0.9
2019-01-10T09:05:02.589Z,1
2019-01-10T09:10:03.107Z,1
2019-01-10T09:15:03.242Z,1
2019-01-10T09:20:04.915Z,1.1
2019-01-10T09:25:02.422Z,1.1
2019-01-10T09:30:02.527Z,1.2
2019-01-10T09:35:02.538Z,1.3
2019-01-10T09:40:05.658Z,1.4
2019-01-10T09:45:03.227Z,1.4
2019-01-10T09:50:07.448Z,1.5
2019-01-10T09:55:02.416Z,1.5
2019-01-10T10:00:02.531Z,1.6
2019-01-10T10:05:02.572Z,1.7
2019-01-10T10:10:03.095Z,1.7
2019-01-10T10:15:03.247Z,1.8
2019-01-10T10:20:02.404Z,1.9
2019-01-10T10:25:02.456Z,1.8
2019-01-10T10:30:02.560Z,1.9
2019-01-10T10:35:05.109Z,1.8
2019-01-10T10:40:05.251Z,1.7
2019-01-10T10:45:02.818Z,1.7
2019-01-10T10:50:03.153Z,1.7
2019-01-10T10:55:03.067Z,1.6
2019-01-10T11:00:03.088Z,1.7
2019-01-10T11:05:03.210Z,1.8
2019-01-10T11:10:02.751Z,1.9
2019-01-10T11:15:02.897Z,1.8
2019-01-10T11:20:08.193Z,1.8
2019-01-10T11:25:03.124Z,1.8
2019-01-10T11:30:03.235Z,1.8
2019-01-10T11:35:03.259Z,1.9
2019-01-10T11:40:02.749Z,1.9
2019-01-10T11:45:02.908Z,1.9
2019-01-10T11:50:03.251Z,1.9
2019-01-10T11:55:02.421Z,2
2019-01-10T12:00:07.590Z,2.1
2019-01-10T12:05:05.116Z,2.1
2019-01-10T12:10:02.739Z,2.1
2019-01-10T12:15:02.907Z,2.1
2019-01-10T12:20:03.118Z,2.1
2019-01-10T12:25:03.147Z,2.1
2019-01-10T12:30:03.110Z,2.1
2019-01-10T12:35:03.204Z,2.2
2019-01-10T12:40:02.745Z,2.1
2019-01-10T12:45:02.904Z,2.3
2019-01-10T12:50:02.974Z,2.2
2019-01-10T12:55:03.129Z,2.2
2019-01-10T13:00:03.272Z,2.2
2019-01-10T13:05:04.932Z,2.4
2019-01-10T13:10:02.414Z,2.4
2019-01-10T13:15:02.525Z,2.4
2019-01-10T13:20:02.713Z,2.2
2019-01-10T13:25:02.735Z,2.1
2019-01-10T13:30:02.903Z,2
2019-01-10T13:35:05.563Z,1.9
2019-01-10T13:40:03.122Z,1.9
2019-01-10T13:45:03.256Z,1.8
2019-01-10T13:50:03.167Z,1.9
2019-01-10T13:55:02.979Z,1.8
2019-01-10T14:00:03.223Z,1.8
2019-01-10T14:05:02.338Z,1.7
2019-01-10T14:10:07.838Z,1.6
2019-01-10T14:15:02.494Z,1.6
2019-01-10T14:20:07.426Z,1.6
2019-01-10T14:25:05.687Z,1.6
2019-01-10T14:30:02.690Z,1.6
2019-01-10T14:35:05.017Z,1.6
2019-01-10T14:40:03.246Z,1.6
2019-01-10T14:45:03.074Z,1.6
2019-01-10T14:50:10.525Z,1.5
2019-01-10T14:55:02.664Z,1.5
2019-01-10T15:00:02.498Z,1.5
2019-01-10T15:05:02.320Z,1.5
2019-01-10T15:10:02.533Z,1.5
2019-01-10T15:15:02.317Z,1.5
2019-01-10T15:20:20.916Z,1.5
2019-01-10T15:25:02.972Z,1.5
2019-01-10T15:30:12.995Z,1.4
2019-01-10T15:35:02.741Z,1.5
2019-01-10T15:40:13.161Z,1.4
2019-01-10T15:45:10.524Z,1.4
2019-01-10T15:50:02.560Z,1.4
2019-01-10T15:55:04.894Z,1.4
2019-01-10T16:00:02.781Z,1.4
2019-01-10T16:05:05.299Z,1.5
2019-01-10T16:10:02.911Z,1.5
2019-01-10T16:15:02.888Z,1.5
2019-01-10T16:20:02.890Z,1.5
2019-01-10T16:25:02.826Z,1.5
2019-01-10T16:30:10.317Z,1.5
2019-01-10T16:35:07.694Z,1.4
2019-01-10T16:40:03.035Z,1.4
2019-01-10T16:45:02.798Z,1.4
2019-01-10T16:50:02.633Z,1.4
2019-01-10T16:55:04.993Z,1.4
2019-01-10T17:00:02.822Z,1.4
2019-01-10T17:05:02.691Z,1.5
2019-01-10T17:10:02.940Z,1.4
2019-01-10T17:15:10.303Z,1.3
2019-01-10T17:20:03.206Z,1.4
2019-01-10T17:25:02.993Z,1.3
2019-01-10T17:30:02.817Z,1.3
2019-01-10T17:35:02.674Z,1.3
2019-01-10T17:40:05.685Z,1.3
2019-01-10T17:45:02.941Z,1.3
2019-01-10T17:50:10.302Z,1.2
2019-01-10T17:55:15.181Z,1.2
2019-01-10T18:00:05.554Z,1.2
2019-01-10T18:05:05.339Z,1.2
2019-01-10T18:10:05.071Z,1.2
2019-01-10T18:15:02.272Z,1.2
2019-01-10T18:20:03.164Z,1.2
2019-01-10T18:25:02.955Z,1.1
2019-01-10T18:30:07.830Z,1.1
2019-01-10T18:35:02.576Z,1.1
2019-01-10T18:40:05.378Z,1
2019-01-10T18:45:02.635Z,1
2019-01-10T18:50:07.504Z,1
2019-01-10T18:55:03.224Z,1
2019-01-10T19:00:05.583Z,1
2019-01-10T19:05:10.451Z,0.9
2019-01-10T19:10:02.650Z,0.9
2019-01-10T19:15:02.493Z,0.9
2019-01-10T19:20:04.872Z,0.9
2019-01-10T19:25:05.696Z,0.9
2019-01-10T19:30:02.676Z,0.9
2019-01-10T19:35:05.031Z,0.9
2019-01-10T19:40:07.448Z,0.9
2019-01-10T19:45:07.383Z,0.9
2019-01-10T19:50:20.885Z,0.9
2019-01-10T19:55:05.518Z,0.9
2019-01-10T20:00:02.313Z,0.9
2019-01-10T20:05:03.132Z,0.9
2019-01-10T20:10:02.343Z,0.8
2019-01-10T20:15:05.707Z,0.8
2019-01-10T20:20:02.581Z,0.8
2019-01-10T20:25:02.387Z,0.8
2019-01-10T20:30:05.771Z,0.7
2019-01-10T20:35:05.616Z,0.7
2019-01-10T20:40:02.817Z,0.7
2019-01-10T20:45:05.141Z,0.7
2019-01-10T20:50:05.648Z,0.6
2019-01-10T20:55:05.468Z,0.7
2019-01-10T21:00:04.828Z,0.7
2019-01-10T21:05:03.129Z,0.7
2019-01-10T21:10:04.911Z,0.7
2019-01-10T21:15:05.723Z,0.7
2019-01-10T21:20:02.589Z,0.7
2019-01-10T21:25:02.399Z,0.7
2019-01-10T21:30:03.197Z,0.7
2019-01-10T21:35:10.600Z,0.7
2019-01-10T21:40:02.848Z,0.7
2019-01-10T21:45:02.680Z,0.7
2019-01-10T21:50:10.123Z,0.7
2019-01-10T21:55:02.319Z,0.7
2019-01-10T22:00:08.200Z,0.7
2019-01-10T22:05:08.029Z,0.7
2019-01-10T22:10:03.262Z,0.7
2019-01-10T22:15:08.231Z,0.7
2019-01-10T22:20:03.088Z,0.7
2019-01-10T22:25:02.892Z,0.7
2019-01-10T22:30:02.710Z,0.7
2019-01-10T22:35:05.072Z,0.6
2019-01-10T22:40:02.338Z,0.6
2019-01-10T22:45:08.168Z,0.6
2019-01-10T22:50:05.527Z,0.6
2019-01-10T22:55:05.368Z,0.7
2019-01-10T23:00:13.281Z,0.7
2019-01-10T23:05:02.949Z,0.7
2019-01-10T23:10:05.709Z,0.7
2019-01-10T23:15:02.975Z,0.6
2019-01-10T23:20:02.891Z,0.7
2019-01-10T23:25:02.721Z,0.6
2019-01-10T23:30:05.057Z,0.6
2019-01-10T23:35:02.345Z,0.6
2019-01-10T23:40:02.584Z,0.6
2019-01-10T23:45:04.888Z,0.6
2019-01-10T23:50:15.360Z,0.6
2019-01-10T23:55:02.527Z,0.6
